Briefing drone pour Plombieres-les-dijon

Rechercher une autre localisation

Conditions de vol :


Nous sommes le : Lundi 04 juillet 2022
Il est 11:41 UTC (13:41 LT)

Lever de soleil : 03:23 UTC (05:23 LT)
Coucher de soleil : 20:05 UTC (22:05 LT)

Météo

L'essentiel des conditions de vol

VIGILANCE MÉTÉO FRANCE - Côte-dOr (21)
Pas de vigilances particulieres
CARTES DES FRONTS
METAR de LFSD
LFSD 041130Z AUTO 35007KT 320V030 9999 FEW032/// SCT072/// BKN110/// ///TCU 24/11 Q1020

Date d'émission: 04/07/2022
Heure d'émission: 11:30 UTC
Vent: 350° (variable du 320° au 030°) pour 7 KT (13 km/h)
Visibilité horizontale: > 10 km
Plafond :
- Peu de nuages à 3200ft (975m)
- Nuages épars à 7200ft (2195m)
- Nuages morcelés à 11000ft (3353m)
Température: 24 °C
Point de rosée: 11 °C
Humidité: 44%
Pression (QNH): 1020 hPa
TAF de LFSD
LFSD 010600Z 0100/0124 CNL

Conditions prévues :

Heure d'émission : Bulletin éffectué le 01 à 00:00 UTC
Prévision : Valide du 01 a 00:00 UTC au 01 a 23:59 UTC
Nuages : à 0ft (0 m)
WEBCAM POUR PLOMBIERES-LES-DIJON

Réglementation

Voler en sécurité

CARTES AERONAUTIQUE 1/500.000
CARTES VAC (LFSD)
SUP AIP




Chargement des AIP...
NOTAM (PLOMBIERES-LES-DIJON + Terrain à proximité / FIR )




Chargement des NOTAMS...
CONTACT PREFECTURE 21
Côte-dOr (21) : pref-drone@cote-dor.gouv.fr


Avertissement : Les données mises à disposition sont indicatives. Oxygène Drone ne pourra être tenu responsable de dégâts causés aux biens et aux personnes.